Portada
METAR-TAF:

METAR-TAF

Aeroports :

Kimberley, Sud-àfrica

latitud: 28-48S, longitud: 024-46E, altitud: 1198 m

Observació

L'informe es va fer fa 57 minuts, a les 02:00 UTC
Vent 2 kt del Sud-Oest
Temperatura 7°C
Humitat 100%
Pressió 1021 hPa

METAR: FAKM 180200Z AUTO 23002KT //// // ////// 07/07 Q1021

Hora: 04:57 (02:57 UTC)

Pronòstic

L'informe es va fer fa 2 hores i 57 minuts, a les 00:00 UTC
Pronòstic vàlid del 18 a les 03 UTC al 18 a les 12 UTC
Vent 3 kt amb direcció variable
Visibilitat 10 km o més
sense núvols per sota de 1500 mi sense presència de cumulonimbus.

TAF: FAKM 180000Z 1803/1812 VRB03KT CAVOK TX19/1812Z TN01/1804Z

Observacions i pronòstics meteorològics de més de 4000 aeroports (METAR i TAF).

Les estacions disponibles són els punts grocs i vermells al mapa.

Posi el ratolí al punt desitjat per veure el nom de l'estació.

Feu clic per veure les observacions i els pronòstics meteorològics.

Per canviar el mapa: feu clic els botons verds amb una creu de color negre per apropar; al botó verd amb un guió per allunyar la imatge; o en les fletxes verdes per a mapes adjacents.


METAR-TAF: